Events

Displaying 8301 - 8400 of 8536

Download data entry template

Text Pg Order within Page Date Location Chronological Order Creation date Updated datesort descending
Flags in the Dust 211 1 1919-05-01 to 1919-06-30 Sartoris Plantation in Flags in the Dust (Location) 128.00 view Sun, 2016-01-31 09:58 Sat, 2022-05-14 08:18
Requiem for a Nun 193 3 1930-01-01 to 1950-12-31 New York City in Requiem for a Nun (Location) 137.00 view Fri, 2019-06-07 09:28 Sat, 2022-05-14 08:19
Go Down, Moses 43 1 1940-04-02 to 1940-05-31 McCaslin-Edmonds Place in Go Down, Moses (Location) 323.00 view Wed, 2016-08-03 09:00 Sat, 2022-05-14 08:19
Absalom, Absalom! 3 1 1909-09-06 Coldfield House in Absalom, Absalom! (Location) 477.00 view Thu, 2017-11-30 10:36 Tue, 2022-06-21 08:46
Absalom, Absalom! 4 1 1833-06-01 to 1833-06-30 Courthouse and Square in Absalom, Absalom! (Location) 42.00 view Thu, 2017-11-30 10:41 Tue, 2022-06-21 08:49
Absalom, Absalom! 4 2 1833-06-01 to 1838-12-31 Sutpen Plantation in Absalom, Absalom! (Location) 47.00 view Thu, 2017-11-30 10:50 Tue, 2022-06-21 08:49
Absalom, Absalom! 4 3 1909-09-06 Coldfield House in Absalom, Absalom! (Location) 478.00 view Thu, 2017-11-30 10:56 Tue, 2022-06-21 08:50
Absalom, Absalom! 5 1 1909-09-06 Coldfield House in Absalom, Absalom! (Location) 479.00 view Thu, 2017-11-30 10:59 Tue, 2022-06-21 08:50
Absalom, Absalom! 5 2 1909-09-06 Coldfield House in Absalom, Absalom! (Location) 480.00 view Thu, 2017-11-30 11:04 Tue, 2022-06-21 08:51
Absalom, Absalom! 6 1 1909-09-06 Coldfield House in Absalom, Absalom! (Location) 476.60 view Thu, 2017-11-30 11:15 Tue, 2022-06-21 08:52
Absalom, Absalom! 5 3 1909-09-06 Compson Place in Absalom, Absalom! (Location) 476.50 view Thu, 2017-11-30 11:11 Tue, 2022-06-21 08:52
Absalom, Absalom! 6 2 1909-09-06 Coldfield House in Absalom, Absalom! (Location) 481.00 view Thu, 2017-11-30 11:19 Tue, 2022-06-21 08:53
Absalom, Absalom! 8 1 1909-09-06 Coldfield House in Absalom, Absalom! (Location) 482.00 view Thu, 2017-11-30 11:41 Tue, 2022-06-21 08:54
Absalom, Absalom! 14 2 1909-09-06 Coldfield House in Absalom, Absalom! (Location) 484.00 view Thu, 2017-11-30 16:04 Tue, 2022-06-21 08:55
Absalom, Absalom! 15 2 1909-09-06 Coldfield House in Absalom, Absalom! (Location) 485.00 view Thu, 2017-11-30 16:12 Tue, 2022-06-21 08:55
Absalom, Absalom! 24 1 1833-07-01 to 1833-07-31 Courthouse and Square in Absalom, Absalom! (Location) 57.00 view Fri, 2017-12-01 08:30 Tue, 2022-06-21 08:56
Absalom, Absalom! 24 2 1833-06-01 to 1833-06-30 Courthouse and Square in Absalom, Absalom! (Location) 45.00 view Fri, 2017-12-01 08:46 Tue, 2022-06-21 08:58
Absalom, Absalom! 24 3 1835-01-01 to 1840-12-31 Courthouse and Square in Absalom, Absalom! (Location) 83.00 view Fri, 2017-12-01 08:48 Tue, 2022-06-21 08:58
Absalom, Absalom! 25 4 1833-06-01 to 1839-12-31 Courthouse and Square in Absalom, Absalom! (Location) 52.00 view Fri, 2017-12-01 09:37 Tue, 2022-06-21 08:59
Absalom, Absalom! 24 6 1833-06-04 to 1833-07-31 Courthouse and Square in Absalom, Absalom! (Location) 53.00 view Fri, 2017-12-01 09:08 Tue, 2022-06-21 08:59
Absalom, Absalom! 25 1 1833-06-03 to 1833-07-31 Holston House in Absalom, Absalom! (Location) 50.00 view Fri, 2017-12-01 09:14 Tue, 2022-06-21 09:00
Absalom, Absalom! 25 2 1840-01-01 to 1864-12-31 Courthouse and Square in Absalom, Absalom! (Location) 116.00 view Fri, 2017-12-01 09:18 Tue, 2022-06-21 09:00
Absalom, Absalom! 25 6 1833-06-07 to 1833-06-30 Courthouse and Square in Absalom, Absalom! (Location) 54.00 view Fri, 2017-12-01 09:47 Tue, 2022-06-21 09:01
Absalom, Absalom! 26 1 1833-06-08 to 1833-06-30 Courthouse and Square in Absalom, Absalom! (Location) 56.00 view Fri, 2017-12-01 09:51 Tue, 2022-06-21 09:01
Absalom, Absalom! 26 3 1833-08-01 to 1835-12-31 Courthouse and Square in Absalom, Absalom! (Location) 58.00 view Fri, 2017-12-01 13:14 Tue, 2022-06-21 09:02
Absalom, Absalom! 26 4 1837-01-01 to 1842-12-31 Courthouse and Square in Absalom, Absalom! (Location) 86.00 view Fri, 2017-12-01 13:19 Tue, 2022-06-21 09:03
Absalom, Absalom! 26 6 1833-08-01 to 1833-08-31 Courthouse and Square in Absalom, Absalom! (Location) 59.00 view Fri, 2017-12-01 13:22 Tue, 2022-06-21 09:04
Absalom, Absalom! 27 1 1840-01-01 to 1864-12-31 Jefferson General Compson's|Mr. Compson's Office in Absalom, Absalom! (Location) 115.00 view Fri, 2017-12-01 13:28 Tue, 2022-06-21 09:04
Absalom, Absalom! 27 2 1833-08-02 to 1833-11-30 Sutpen Plantation in Absalom, Absalom! (Location) 60.00 view Fri, 2017-12-01 13:35 Tue, 2022-06-21 09:05
Absalom, Absalom! 28 1 1833-09-01 to 1835-12-31 Sutpen Plantation in Absalom, Absalom! (Location) 61.00 view Fri, 2017-12-01 13:40 Tue, 2022-06-21 09:05
Absalom, Absalom! 29 1 1833-09-01 to 1835-12-31 Jefferson General Compson's|Mr. Compson's Office in Absalom, Absalom! (Location) 61.30 view Fri, 2017-12-01 13:52 Tue, 2022-06-21 09:06
Absalom, Absalom! 31 1 1838-01-01 to 1838-12-31 Jefferson Methodist Church in Absalom, Absalom! (Location) 89.00 view Fri, 2017-12-01 14:13 Tue, 2022-06-21 09:07
Absalom, Absalom! 32 1 1838-01-02 to 1838-12-31 Coldfield's Store in Absalom, Absalom! (Location) 90.00 view Fri, 2017-12-01 14:16 Tue, 2022-06-21 09:08
Absalom, Absalom! 33 1 1838-01-03 to 1838-01-31 Compson Place in Absalom, Absalom! (Location) 91.00 view Fri, 2017-12-01 14:28 Tue, 2022-06-21 09:08
Absalom, Absalom! 33 2 1838-04-01 to 1838-04-29 Courthouse and Square in Absalom, Absalom! (Location) 92.00 view Fri, 2017-12-01 14:34 Tue, 2022-06-21 09:09
Absalom, Absalom! 34 1 1838-04-02 to 1838-04-30 Northwest Road|Jefferson to Memphis in Absalom, Absalom! (Location) 93.00 view Fri, 2017-12-01 14:45 Tue, 2022-06-21 09:10
Absalom, Absalom! 34 2 1838-04-02 to 1838-04-30 Holston House in Absalom, Absalom! (Location) 94.00 view Fri, 2017-12-01 14:50 Tue, 2022-06-21 09:10
Absalom, Absalom! 35 1 1838-04-02 to 1838-04-30 Courthouse and Square in Absalom, Absalom! (Location) 95.00 view Fri, 2017-12-01 14:55 Tue, 2022-06-21 09:10
Absalom, Absalom! 39 2 1838-04-03 to 1838-05-31 Courthouse and Square in Absalom, Absalom! (Location) 100.00 view Fri, 2017-12-01 15:44 Tue, 2022-06-21 09:12
Absalom, Absalom! 40 1 1820-03-01 to 1820-12-31 Tidewater Virginia in Absalom, Absalom! (Location) 15.00 view Fri, 2017-12-01 15:47 Tue, 2022-06-21 09:12
Absalom, Absalom! 40 2 1855-01-01 to 1855-12-31 Sutpen's Stable in Absalom, Absalom! (Location) 142.50 view Fri, 2017-12-01 15:51 Tue, 2022-06-21 09:13
Absalom, Absalom! 42 2 1838-06-03 to 1838-06-30 Compson Place in Absalom, Absalom! (Location) 105.00 view Fri, 2017-12-01 16:19 Tue, 2022-06-21 09:13
Absalom, Absalom! 42 3 1858-06-03 to 1858-12-31 Compson Place in Absalom, Absalom! (Location) 154.00 view Fri, 2017-12-01 16:22 Tue, 2022-06-21 09:14
Absalom, Absalom! 49 1 1845-01-01 to 1859-12-31 Coldfield House in Absalom, Absalom! (Location) 120.00 view Sat, 2017-12-02 09:02 Tue, 2022-06-21 09:24
Absalom, Absalom! 55 1 1859-12-25 to 1860-09-01 Sutpen Plantation in Absalom, Absalom! (Location) 192.00 view Sat, 2017-12-02 10:18 Tue, 2022-06-21 09:24
Absalom, Absalom! 56 4 1860-06-01 to 1860-08-31 Courthouse and Square in Absalom, Absalom! (Location) 216.00 view Sat, 2017-12-02 10:35 Tue, 2022-06-21 09:25
Absalom, Absalom! 56 5 1848-01-01 to 1860-08-31 Sutpen Plantation in Absalom, Absalom! (Location) 122.00 view Sat, 2017-12-02 10:41 Tue, 2022-06-21 09:25
Absalom, Absalom! 60 4 1855-01-01 to 1860-08-31 Courthouse and Square in Absalom, Absalom! (Location) 151.00 view Sat, 2017-12-02 14:24 Tue, 2022-06-21 09:25
Absalom, Absalom! 62 1 1860-12-21 to 1860-12-25 Sutpen Plantation in Absalom, Absalom! (Location) 267.00 view Sat, 2017-12-02 14:54 Tue, 2022-06-21 09:26
Absalom, Absalom! 64 4 1861-09-01 to 1861-12-31 Coldfield House in Absalom, Absalom! (Location) 314.00 view Sat, 2017-12-02 15:28 Tue, 2022-06-21 09:28
Absalom, Absalom! 65 2 1885-01-01 to 1885-12-31 Coldfield House in Absalom, Absalom! (Location) 463.00 view Sat, 2017-12-02 15:34 Tue, 2022-06-21 09:28
Absalom, Absalom! 66 4 1862-01-01 to 1863-12-31 Sutpen Plantation in Absalom, Absalom! (Location) 316.00 view Sat, 2017-12-02 16:00 Tue, 2022-06-21 09:29
Absalom, Absalom! 67 1 1860-12-25 to 1865-05-03 Sutpen Plantation in Absalom, Absalom! (Location) 269.50 view Sat, 2017-12-02 16:03 Tue, 2022-06-21 09:29
Absalom, Absalom! 70 1 1909-09-06 Compson Place in Absalom, Absalom! (Location) 497.00 view Sun, 2017-12-03 08:05 Tue, 2022-06-21 09:29
Absalom, Absalom! 71 1 1909-09-06 Compson Place in Absalom, Absalom! (Location) 498.00 view Sun, 2017-12-03 08:08 Tue, 2022-06-21 09:30
Absalom, Absalom! 84 1 1860-12-24 Sutpen Plantation in Absalom, Absalom! (Location) 266.00 view Sun, 2017-12-03 14:30 Tue, 2022-06-21 09:32
Absalom, Absalom! 85 2 1909-09-06 Compson Place in Absalom, Absalom! (Location) 501.00 view Sun, 2017-12-03 15:05 Tue, 2022-06-21 09:33
Absalom, Absalom! 100 6 1865-05-10 to 1865-05-12 Compson Place in Absalom, Absalom! (Location) 384.00 view Mon, 2017-12-04 13:15 Tue, 2022-06-21 09:35
Absalom, Absalom! 145 1 1869-08-12 Fishing Camp|Hunting Camp in Absalom, Absalom! (Location) 414.10 view Wed, 2022-01-26 11:12 Tue, 2022-06-21 09:37
Absalom, Absalom! 147 3 1910-01-13 Harvard University|Cambridge Area in Absalom, Absalom! (Location) 528.00 view Wed, 2017-12-06 08:01 Tue, 2022-06-21 09:38
Absalom, Absalom! 149 6 1852-01-01 to 1860-12-31 Sutpen's Scuppernong Arbor in Absalom, Absalom! (Location) 139.20 view Wed, 2017-12-06 08:26 Tue, 2022-06-21 09:40
Absalom, Absalom! 151 1 1869-08-12 Fishing Camp|Hunting Camp in Absalom, Absalom! (Location) 414.50 view Wed, 2017-12-06 09:17 Tue, 2022-06-21 09:41
Absalom, Absalom! 154 1 1862-07-01 to 1864-11-30 Sutpen Plantation in Absalom, Absalom! (Location) 326.00 view Wed, 2017-12-06 10:42 Tue, 2022-06-21 09:43
Absalom, Absalom! 156 1 1908-09-01 to 1908-10-31 Sutpen Graveyard in Absalom, Absalom! (Location) 470.00 view Wed, 2017-12-06 11:22 Tue, 2022-06-21 09:45
Absalom, Absalom! 157 1 1908-09-01 to 1908-10-31 Sutpen Graveyard in Absalom, Absalom! (Location) 471.00 view Wed, 2017-12-06 11:32 Tue, 2022-06-21 09:45
Absalom, Absalom! 163 1 1872-01-01 to 1874-12-31 Courthouse and Square in Absalom, Absalom! (Location) 440.00 view Wed, 2017-12-06 14:23 Tue, 2022-06-21 09:46
Absalom, Absalom! 166 2 1882-01-01 to 1882-12-31 Sutpen Plantation in Absalom, Absalom! (Location) 457.00 view Wed, 2017-12-06 15:08 Tue, 2022-06-21 09:48
Absalom, Absalom! 168 1 1909-09-06 Compson Place in Absalom, Absalom! (Location) 504.50 view Wed, 2017-12-06 15:31 Tue, 2022-06-21 09:49
Absalom, Absalom! 168 2 1910-01-13 Harvard University|Cambridge Area in Absalom, Absalom! (Location) 531.00 view Wed, 2017-12-06 15:39 Tue, 2022-06-21 09:49
Absalom, Absalom! 168 3 1881-01-01 to 1881-12-31 Sutpen Plantation in Absalom, Absalom! (Location) 453.00 view Wed, 2017-12-06 15:45 Tue, 2022-06-21 09:50
Absalom, Absalom! 169 1 1881-01-02 to 1884-12-30 Sutpen Plantation in Absalom, Absalom! (Location) 454.00 view Wed, 2017-12-06 15:50 Tue, 2022-06-21 09:51
Absalom, Absalom! 170 3 1910-01-13 Harvard University|Cambridge Area in Absalom, Absalom! (Location) 531.50 view Wed, 2017-12-06 16:09 Tue, 2022-06-21 09:51
Absalom, Absalom! 170 4 1908-09-01 to 1908-10-31 Sutpen Graveyard in Absalom, Absalom! (Location) 472.00 view Wed, 2017-12-06 16:23 Tue, 2022-06-21 09:51
Absalom, Absalom! 171 1 1910-01-13 Harvard University|Cambridge Area in Absalom, Absalom! (Location) 532.00 view Thu, 2017-12-07 09:07 Tue, 2022-06-21 09:52
Absalom, Absalom! 174 2 1882-01-01 to 1909-09-06 Slave Quarters at Sutpen's in Absalom, Absalom! (Location) 458.00 view Thu, 2017-12-07 09:55 Tue, 2022-06-21 10:19
Absalom, Absalom! 174 1 1908-09-01 to 1908-10-31 Sutpen Graveyard in Absalom, Absalom! (Location) 475.00 view Thu, 2017-12-07 09:51 Tue, 2022-06-21 10:20
Absalom, Absalom! 175 2 1909-09-06 Sutpen Plantation in Absalom, Absalom! (Location) 509.00 view Thu, 2017-12-07 10:00 Tue, 2022-06-21 10:20
Absalom, Absalom! 176 1 1910-01-13 Harvard University|Cambridge Area in Absalom, Absalom! (Location) 534.00 view Thu, 2017-12-07 10:25 Tue, 2022-06-21 10:21
Absalom, Absalom! 177 1 1834-06-01 to 1834-08-31 Sutpen Plantation in Absalom, Absalom! (Location) 63.00 view Thu, 2017-12-07 10:29 Tue, 2022-06-21 10:22
Absalom, Absalom! 177 4 1910-01-13 Harvard University|Cambridge Area in Absalom, Absalom! (Location) 537.00 view Thu, 2017-12-07 10:39 Tue, 2022-06-21 10:23
Absalom, Absalom! 178 3 1820-03-01 to 1820-12-31 Sutpen Plantation in Absalom, Absalom! (Location) 10.00 view Thu, 2017-12-07 10:55 Tue, 2022-06-21 10:24
Absalom, Absalom! 180 1 1817-01-01 to 1817-12-31 Tidewater Virginia in Absalom, Absalom! (Location) 4.00 view Mon, 2020-02-03 16:13 Tue, 2022-06-21 10:25
Absalom, Absalom! 180 3 1817-01-01 to 1817-12-31 Virginia in Absalom, Absalom! (Location) 4.10 view Thu, 2017-12-07 11:06 Tue, 2022-06-21 10:25
Absalom, Absalom! 181 1 1817-01-01 to 1817-12-31 Western Virginia in Absalom, Absalom! (Location) 2.00 view Thu, 2017-12-07 11:09 Tue, 2022-06-21 10:26
Absalom, Absalom! 181 2 1817-01-02 to 1818-12-31 Virginia in Absalom, Absalom! (Location) 3.00 view Thu, 2017-12-07 11:19 Tue, 2022-06-21 10:26
Absalom, Absalom! 183 1 1818-01-01 to 1819-12-31 Tidewater Virginia in Absalom, Absalom! (Location) 5.00 view Thu, 2017-12-07 11:26 Tue, 2022-06-21 10:27
Absalom, Absalom! 184 1 1818-01-02 to 1819-12-31 Tidewater Virginia in Absalom, Absalom! (Location) 6.00 view Thu, 2017-12-07 12:44 Tue, 2022-06-21 10:27
Absalom, Absalom! 185 1 1820-03-01 to 1820-12-31 Tidewater Virginia in Absalom, Absalom! (Location) 11.00 view Thu, 2017-12-07 12:48 Tue, 2022-06-21 10:27
Absalom, Absalom! 186 1 1818-01-01 to 1819-12-31 Tidewater Virginia in Absalom, Absalom! (Location) 7.00 view Thu, 2017-12-07 12:55 Tue, 2022-06-21 10:27
Absalom, Absalom! 188 1 1820-03-01 to 1820-12-31 Tidewater Virginia in Absalom, Absalom! (Location) 12.00 view Thu, 2017-12-07 13:01 Tue, 2022-06-21 10:28
Absalom, Absalom! 188 2 1820-03-01 to 1820-12-31 Tidewater Virginia in Absalom, Absalom! (Location) 13.00 view Thu, 2017-12-07 13:09 Tue, 2022-06-21 10:28
Absalom, Absalom! 190 1 1820-03-01 to 1820-12-31 Tidewater Virginia in Absalom, Absalom! (Location) 14.00 view Thu, 2017-12-07 13:18 Tue, 2022-06-21 10:29
Absalom, Absalom! 192 1 1910-01-13 Harvard University|Cambridge Area in Absalom, Absalom! (Location) 539.00 view Thu, 2017-12-07 13:26 Tue, 2022-06-21 10:29
Absalom, Absalom! 193 2 1823-01-01 to 1823-12-31 Haiti in Absalom, Absalom! (Location) 18.00 view Thu, 2017-12-07 13:36 Tue, 2022-06-21 10:30
Absalom, Absalom! 194 1 1831-01-01 to 1832-12-31 Haiti in Absalom, Absalom! (Location) 36.00 view Thu, 2017-12-07 13:44 Tue, 2022-06-21 10:30
Absalom, Absalom! 194 3 1819-11-01 to 1820-02-28 Tidewater Virginia in Absalom, Absalom! (Location) 8.00 view Thu, 2017-12-07 14:01 Tue, 2022-06-21 10:31
Absalom, Absalom! 195 1 1819-11-02 to 1820-02-28 Tidewater Virginia in Absalom, Absalom! (Location) 9.00 view Thu, 2017-12-07 14:03 Tue, 2022-06-21 10:31
Absalom, Absalom! 196 1 1820-03-02 to 1820-12-31 Tidewater Virginia in Absalom, Absalom! (Location) 16.00 view Thu, 2017-12-07 14:12 Tue, 2022-06-21 10:31
Absalom, Absalom! 198 3 1826-01-10 to 1826-12-31 Haiti in Absalom, Absalom! (Location) 25.00 view Thu, 2017-12-07 14:39 Tue, 2022-06-21 10:32
Absalom, Absalom! 199 1 1823-01-01 to 1826-12-31 Haiti in Absalom, Absalom! (Location) 19.00 view Thu, 2017-12-07 14:43 Tue, 2022-06-21 10:32

Pages

Subscribe to Events